80.5°F
Current conditions from King Hill
Updated every 5 minutes
 
  Monday August 21, 2017

Observations for Westford

Westford

44° 37' 39"N, 73° 02' 29"W, Elevation 850 ft.
Eastern Time

Hourly observations for the last 72 hours

Date Time Temperature (°F) Humi-
dity

(%)
Wind
(mph)
Pressure Rain (in)
Air Dew 6 Hour 1 Hr 3 Hr 6 Hr Day
Alt
(in)
Sea
Level

(mb)
Max Min
21 17:00 81.6 69.2 66 WNW 1 G 8 29.97 1014.9 0.00
21 16:00 80.8 70.1 70 SSW 1 G 7 29.98 1015.4 0.00
21 15:00 77.9 68.2 72 Calm 29.99 1015.6 0.00
21 14:00 80.7 67.9 82.0 62.8 65 SW 1 G 10 30.01 1016.4 0.00
21 13:00 81.2 67.4 63 SSW 0 G 10 30.03 1016.8 0.00
21 12:00 78.8 67.8 69 SW 0 G 7 30.04 1017.2 0.00
21 11:00 76.2 66.9 73 WSW 2 G 13 30.06 1017.8 0.00
21 10:00 72.5 64.5 76 SSW 1 G 13 30.05 1017.8 0.00
21 09:00 68.0 62.0 81 SSW 7 G 16 30.06 1018.0 0.00
21 08:00 63.4 60.1 63.4 59.1 89 SW 2 G 9 30.07 1018.4 0.00
21 07:00 60.7 58.4 92 SSW 2 G 7 30.07 1018.3 0.00
21 06:00 59.6 57.0 91 Calm 30.07 1018.2 0.00
21 05:00 60.0 57.4 91 SSW 0 G 2 30.06 1017.9 0.00
21 04:00 59.9 57.3 91 SW 1 G 6 30.05 1017.7 0.00
21 03:00 59.4 57.1 92 SSW 0 G 1 30.05 1017.5 0.00
21 02:00 59.2 57.2 65.0 58.9 93 SSW 0 G 2 30.05 1017.7 0.00
21 01:00 60.1 57.8 92 SW 0 G 1 30.04 1017.4 0.00
21 00:00 61.5 58.9 91 Calm 30.03 1017.1 0.16
20 23:00 60.8 58.5 92 WSW 0 G 1 30.02 1016.6 0.16
20 22:00 62.3 59.0 89 Calm 30.01 1016.4 0.16
20 21:00 63.9 59.3 85 Calm 30.00 1016.1 0.16
20 20:00 65.0 60.4 78.4 65.0 85 Calm 29.98 1015.1 0.16
20 19:00 71.7 63.7 76 Calm 29.96 1014.6 0.16
20 18:00 75.3 63.2 66 W 0 G 4 29.95 1014.3 0.16
20 17:00 76.0 63.4 65 Calm 29.95 1014.1 0.16
20 16:00 77.4 62.9 61 WNW 1 G 6 29.95 1014.1 0.16
20 15:00 76.1 63.5 65 WNW 0 G 7 29.96 1014.5 0.16
20 14:00 76.6 62.6 76.7 61.5 62 WNW 2 G 8 29.96 1014.6 0.01 0.16
20 13:00 74.0 61.5 65 WNW 3 G 13 29.96 1014.5 0.16
20 12:00 73.4 63.0 70 W 2 G 7 29.95 1014.4 0.16
20 11:00 70.2 61.9 75 WNW 1 G 9 29.95 1014.2 0.01 0.01 0.16
20 10:00 67.4 60.7 79 WNW 0 G 9 29.93 1013.6 0.15
20 09:00 65.4 60.8 85 WNW 5 G 15 29.93 1013.5 0.15
20 08:00 61.6 59.9 65.9 61.1 94 WNW 3 G 9 29.91 1012.8 0.15 0.15
20 07:00 61.8 60.6 96 Calm 29.88 1011.8 0.15
20 06:00 61.4 60.0 95 W 0 G 5 29.85 1010.8 0.15
20 05:00 62.2 60.8 95 W 1 G 6 29.81 1009.6 0.15 0.15 0.15
20 04:00 64.9 59.6 83 W 0 G 6 29.78 1008.6 0.00
20 03:00 65.8 59.5 80 WSW 0 G 12 29.77 1008.2 0.00
20 02:00 65.7 59.7 70.5 60.0 81 W 4 G 11 29.77 1008.3 0.00
20 01:00 62.9 58.3 85 WSW 0 G 11 29.77 1008.3 0.00
20 00:00 61.6 57.7 87 Calm 29.77 1008.2 0.00
19 23:00 60.1 57.2 90 SW 0 G 2 29.76 1007.9 0.00
19 22:00 63.1 58.8 86 Calm 29.76 1008.0 0.00
19 21:00 67.3 59.1 75 W 1 G 11 29.75 1007.6 0.00
19 20:00 70.5 61.4 77.5 70.5 73 WNW 0 G 9 29.72 1006.5 0.00
19 19:00 72.7 64.7 76 WNW 6 G 10 29.70 1005.9 0.00
19 18:00 74.5 68.3 81 Calm 29.69 1005.6 0.00
19 17:00 75.6 67.1 75 WNW 0 G 9 29.70 1005.7 0.00
19 16:00 73.6 67.1 80 W 2 G 7 29.70 1005.8 0.00
19 15:00 76.0 69.0 79 W 1 G 7 29.70 1005.9 0.00
19 14:00 76.2 67.7 78.0 67.8 75 W 3 G 8 29.70 1006.0 0.00
19 13:00 77.4 69.2 76 SSW 4 G 11 29.71 1006.0 0.00
19 12:00 76.8 69.8 79 SSW 0 G 5 29.72 1006.5 0.00
19 11:00 73.6 69.5 87 SW 1 G 10 29.73 1006.7 0.00
19 10:00 70.3 68.8 95 SSW 1 G 7 29.72 1006.5 0.00
19 09:00 68.2 67.3 97 SSW 0 G 5 29.72 1006.5 0.00
19 08:00 68.1 67.2 68.1 63.6 97 SSW 0 G 5 29.72 1006.6 0.00
19 07:00 67.1 66.2 97 SSW 0 G 1 29.71 1006.2 0.00
19 06:00 64.4 63.5 97 Calm 29.69 1005.6 0.00
19 05:00 64.3 63.4 97 Calm 29.68 1005.1 0.00
19 04:00 65.6 64.7 97 Calm 29.68 1005.0 0.00
19 03:00 65.3 64.4 97 Calm 29.68 1005.1 0.00
19 02:00 64.4 63.2 70.1 64.4 96 Calm 29.69 1005.3 0.14 0.14 0.00
19 01:00 67.0 65.8 96 SSW 0 G 5 29.69 1005.6 0.00
19 00:00 67.6 66.1 95 S 0 G 5 29.70 1005.9 0.14 0.43
18 23:00 66.9 65.1 94 Calm 29.70 1005.9 0.29
18 22:00 67.8 65.4 92 Calm 29.70 1005.8 0.29
18 21:00 69.1 66.7 92 S 0 G 8 29.69 1005.5 0.29
18 20:00 70.1 66.7 80.1 70.1 89 ESE 0 G 7 29.67 1004.8 0.29
18 19:00 72.4 67.6 85 SSE 1 G 7 29.67 1004.8 0.29
18 18:00 75.6 68.6 79 SSW 3 G 10 29.66 1004.4 0.29

Data generated by WxSolution Version 1.9.0.6, Build 2017.01.14.


 
 
Current Radar Loop:

Copyright © WestfordWeather.net 2007-2017. All rights reserved.